Time;durP1;ratioP1;P1;durP2;ratioP2;P2;SDS_P1;SDS_P2;PMS_P1;PMS_P2;Temp;Humidity;BMP_temperature;BMP_pressure;BME280_temperature;BME280_humidity;BME280_pressure;Samples;Min_cycle;Max_cycle;Signal;HPM_P1;HPM_P2
2022/08/07 00:01:24;;;;;;;;;;;;;;;17.42;46.39;101530.47;5001775;28;7122;-76
2022/08/07 00:03:50;;;;;;;;;;;;;;;17.37;46.69;101537.16;4977212;28;8079;-76
2022/08/07 00:06:16;;;;;;;;;;;;;;;17.30;46.90;101531.75;5011182;28;7110;-76
2022/08/07 00:08:41;;;;;;;;;;;;;;;17.28;46.70;101529.94;5011145;28;6815;-76
2022/08/07 00:11:07;;;;;;;;;;;;;;;17.23;46.87;101529.75;5000436;28;8489;-76
2022/08/07 00:13:36;;;;;;;;;;;;;;;17.18;47.32;101533.84;5010092;28;7117;-76
2022/08/07 00:16:04;;;;;;;;;;;;;;;17.11;47.08;101527.56;4977244;28;7363;-76
2022/08/07 00:18:30;;;;;;;;;;;;;;;17.07;47.49;101531.72;5013057;28;7702;-76
2022/08/07 00:21:05;;;;;;;;;;;;;;;17.04;47.34;101530.72;5012645;28;7852;-76
2022/08/07 00:23:34;;;;;;;;;;;;;;;17.00;47.55;101528.81;4984100;28;6962;-76
2022/08/07 00:26:02;;;;;;;;;;;;;;;16.98;47.77;101525.28;5025873;28;6970;-76
2022/08/07 00:28:30;;;;;;;;;;;;;;;16.94;48.17;101527.72;4998457;28;7000;-76
2022/08/07 00:30:55;;;;;;;;;;;;;;;16.92;48.01;101521.63;5002835;28;7016;-76
2022/08/07 00:33:25;;;;;;;;;;;;;;;16.88;47.87;101521.44;4993686;28;6940;-76
2022/08/07 00:35:52;;;;;;;;;;;;;;;16.86;48.42;101512.72;4983251;28;7066;-76
2022/08/07 00:38:18;;;;;;;;;;;;;;;16.82;48.76;101510.84;5025015;28;6982;-76
2022/08/07 00:40:43;;;;;;;;;;;;;;;16.80;48.79;101515.97;4980183;28;7175;-76
2022/08/07 00:43:11;;;;;;;;;;;;;;;16.76;48.74;101507.19;4978712;28;6795;-76
2022/08/07 00:45:39;;;;;;;;;;;;;;;16.74;48.83;101503.66;5011081;28;6991;-76
2022/08/07 00:48:06;;;;;;;;;;;;;;;16.71;49.21;101511.31;5011769;28;6800;-76
2022/08/07 00:50:32;;;;;;;;;;;;;;;16.68;48.92;101511.16;4983598;28;6800;-76
2022/08/07 00:52:58;;;;;;;;;;;;;;;16.64;49.46;101506.69;5024741;28;7019;-76
2022/08/07 00:55:24;;;;;;;;;;;;;;;16.61;49.11;101501.38;4990995;28;8550;-76
2022/08/07 00:57:50;;;;;;;;;;;;;;;16.57;49.41;101502.06;4981910;28;6831;-76
2022/08/07 01:00:17;;;;;;;;;;;;;;;16.54;49.38;101500.25;4980764;28;6957;-76
2022/08/07 01:02:45;;;;;;;;;;;;;;;16.51;49.90;101493.25;5007845;28;6943;-76
2022/08/07 01:05:12;;;;;;;;;;;;;;;16.47;49.82;101490.47;4967240;28;6892;-76
2022/08/07 01:07:39;;;;;;;;;;;;;;;16.43;50.11;101488.56;4980654;28;7166;-76
2022/08/07 01:10:07;;;;;;;;;;;;;;;16.38;50.30;101486.69;4999368;28;8616;-76
2022/08/07 01:12:34;;;;;;;;;;;;;;;16.33;50.74;101490.78;5009455;28;6848;-76
2022/08/07 01:15:01;;;;;;;;;;;;;;;16.29;50.15;101491.47;5006110;28;6876;-76
2022/08/07 01:17:28;;;;;;;;;;;;;;;16.24;50.55;101483.53;5009424;28;6975;-76
2022/08/07 01:20:07;;;;;;;;;;;;;;;16.20;50.84;101486.78;4999449;28;7880;-76
2022/08/07 01:22:35;;;;;;;;;;;;;;;16.17;51.33;101489.25;5010778;28;7011;-76
2022/08/07 01:25:03;;;;;;;;;;;;;;;16.11;50.89;101481.22;4974388;28;6804;-76
2022/08/07 01:27:29;;;;;;;;;;;;;;;16.08;51.44;101484.59;5013071;28;6804;-76
2022/08/07 01:29:55;;;;;;;;;;;;;;;16.05;51.04;101480.97;5010276;28;6791;-76
2022/08/07 01:32:21;;;;;;;;;;;;;;;16.00;51.09;101488.53;5009240;28;7329;-76
2022/08/07 01:34:49;;;;;;;;;;;;;;;15.97;50.81;101472.88;5010571;28;7853;-76
2022/08/07 01:37:16;;;;;;;;;;;;;;;15.94;51.47;101480.50;4991832;28;8429;-76
2022/08/07 01:39:44;;;;;;;;;;;;;;;15.91;51.00;101489.00;5012359;28;7168;-76
2022/08/07 01:42:12;;;;;;;;;;;;;;;15.90;51.43;101486.34;4976987;28;6975;-76
2022/08/07 01:44:37;;;;;;;;;;;;;;;15.87;51.22;101487.09;5022560;28;7128;-76
2022/08/07 01:47:03;;;;;;;;;;;;;;;15.85;51.60;101480.06;5003547;28;7215;-76
2022/08/07 01:49:29;;;;;;;;;;;;;;;15.82;51.14;101486.88;4989545;28;8595;-76
2022/08/07 01:51:58;;;;;;;;;;;;;;;15.79;51.11;101488.44;5009736;28;6772;-76
2022/08/07 01:54:28;;;;;;;;;;;;;;;15.76;51.95;101488.31;5009293;28;6796;-76
2022/08/07 01:57:23;;;;;;;;;;;;;;;15.73;51.40;101488.16;5029413;28;6838;-76
2022/08/07 02:00:01;;;;;;;;;;;;;;;15.68;51.84;101481.09;4978382;28;6874;-76
2022/08/07 02:02:37;;;;;;;;;;;;;;;15.65;52.20;101490.41;4978079;28;6901;-76
2022/08/07 02:05:09;;;;;;;;;;;;;;;15.62;52.22;101490.28;5011523;28;6804;-76
2022/08/07 02:07:45;;;;;;;;;;;;;;;15.60;52.64;101492.78;4983932;28;6796;-76
2022/08/07 02:10:12;;;;;;;;;;;;;;;15.60;52.69;101487.63;4986933;28;6796;-76
2022/08/07 02:12:43;;;;;;;;;;;;;;;15.59;52.32;101488.44;5013087;28;7241;-76
2022/08/07 02:15:11;;;;;;;;;;;;;;;15.58;52.81;101485.78;5001422;28;6992;-76
2022/08/07 02:17:41;;;;;;;;;;;;;;;15.56;52.36;101480.56;5017667;28;6986;-76
2022/08/07 02:20:09;;;;;;;;;;;;;;;15.54;53.49;101480.50;5016040;28;7145;-76
2022/08/07 02:22:38;;;;;;;;;;;;;;;15.50;53.16;101475.13;4981320;28;6804;-76
2022/08/07 02:25:07;;;;;;;;;;;;;;;15.48;53.45;101476.75;4982440;28;6991;-76
2022/08/07 02:27:36;;;;;;;;;;;;;;;15.46;52.57;101468.06;5013277;28;6889;-76
2022/08/07 02:30:04;;;;;;;;;;;;;;;15.45;53.23;101472.31;5028607;28;6982;-76
2022/08/07 02:32:34;;;;;;;;;;;;;;;15.43;53.00;101473.06;4979818;28;7008;-76
2022/08/07 02:35:03;;;;;;;;;;;;;;;15.39;52.83;101475.53;4971882;28;7251;-76
2022/08/07 02:37:33;;;;;;;;;;;;;;;15.39;53.18;101475.53;5029075;28;6976;-76
2022/08/07 02:40:03;;;;;;;;;;;;;;;15.36;53.34;101477.06;5010789;28;7185;-78
2022/08/07 02:42:32;;;;;;;;;;;;;;;15.32;53.91;101473.47;4983865;28;6804;-78
2022/08/07 02:45:02;;;;;;;;;;;;;;;15.28;52.95;101469.84;4982468;28;6996;-78
2022/08/07 02:47:28;;;;;;;;;;;;;;;15.25;52.99;101464.56;5013518;28;6866;-78
2022/08/07 02:49:55;;;;;;;;;;;;;;;15.23;53.14;101467.88;5015734;28;7024;-78
2022/08/07 02:52:31;;;;;;;;;;;;;;;15.20;53.16;101454.84;5014529;28;6776;-78
2022/08/07 02:55:05;;;;;;;;;;;;;;;15.19;54.03;101458.22;4981818;28;7251;-78
2022/08/07 02:57:36;;;;;;;;;;;;;;;15.18;54.20;101457.34;4979053;28;7251;-76
2022/08/07 03:00:05;;;;;;;;;;;;;;;15.17;53.74;101459.88;5016838;28;7066;-75
2022/08/07 03:02:34;;;;;;;;;;;;;;;15.11;54.44;101466.50;5012960;28;7443;-75
2022/08/07 03:05:02;;;;;;;;;;;;;;;15.12;53.84;101468.25;5024489;28;7368;-75
2022/08/07 03:07:29;;;;;;;;;;;;;;;15.10;54.71;101467.31;5001141;28;7266;-75
2022/08/07 03:09:55;;;;;;;;;;;;;;;15.08;54.28;101476.69;5011121;28;6811;-75
2022/08/07 03:12:25;;;;;;;;;;;;;;;15.06;55.29;101474.84;5012621;28;6775;-75
2022/08/07 03:14:52;;;;;;;;;;;;;;;15.02;54.35;101465.19;5008275;28;7284;-76
2022/08/07 03:17:19;;;;;;;;;;;;;;;14.97;54.48;101465.00;4981376;28;6965;-76
2022/08/07 03:19:46;;;;;;;;;;;;;;;14.94;54.09;101470.00;5000911;28;8541;-76
2022/08/07 03:22:12;;;;;;;;;;;;;;;14.91;54.37;101470.72;5028087;28;7217;-76
2022/08/07 03:24:38;;;;;;;;;;;;;;;14.90;54.05;101471.53;5012529;28;7240;-75
2022/08/07 03:27:06;;;;;;;;;;;;;;;14.90;55.09;101471.53;5016354;28;6966;-75
2022/08/07 03:29:47;;;;;;;;;;;;;;;14.89;54.65;101472.34;5028703;28;7237;-75
2022/08/07 03:32:17;;;;;;;;;;;;;;;14.86;55.05;101465.34;5008667;28;6804;-75
2022/08/07 03:34:48;;;;;;;;;;;;;;;14.84;54.16;101459.22;4979758;28;7747;-75
2022/08/07 03:37:18;;;;;;;;;;;;;;;14.82;54.25;101462.53;4993146;28;7062;-75
2022/08/07 03:39:46;;;;;;;;;;;;;;;14.79;54.91;101463.31;5011676;28;6811;-75
2022/08/07 03:42:16;;;;;;;;;;;;;;;14.77;54.73;101458.88;4978124;28;7413;-75
2022/08/07 03:44:43;;;;;;;;;;;;;;;14.77;53.77;101456.28;4985089;28;6807;-75
2022/08/07 03:47:11;;;;;;;;;;;;;;;14.76;54.97;101452.81;5012152;28;7124;-75
2022/08/07 03:49:37;;;;;;;;;;;;;;;14.76;54.38;101454.53;5009993;28;7177;-75
2022/08/07 03:52:05;;;;;;;;;;;;;;;14.74;54.10;101454.44;4984001;28;7042;-75
2022/08/07 03:54:31;;;;;;;;;;;;;;;14.73;55.13;101452.69;5005308;28;6958;-75
2022/08/07 03:56:58;;;;;;;;;;;;;;;14.72;54.22;101456.03;5014153;28;8013;-75
2022/08/07 03:59:26;;;;;;;;;;;;;;;14.72;55.08;101462.09;4994861;28;6981;-75
2022/08/07 04:01:55;;;;;;;;;;;;;;;14.70;54.95;101462.81;4983275;28;7179;-75
2022/08/07 04:04:21;;;;;;;;;;;;;;;14.68;53.97;101465.31;5011963;28;6883;-75
2022/08/07 04:06:48;;;;;;;;;;;;;;;14.65;54.29;101459.13;5009088;28;8035;-75
2022/08/07 04:09:14;;;;;;;;;;;;;;;14.60;54.90;101461.47;5009085;28;6871;-75
2022/08/07 04:11:41;;;;;;;;;;;;;;;14.56;55.01;101457.00;5010644;28;6961;-75
2022/08/07 04:14:08;;;;;;;;;;;;;;;14.52;55.21;101445.66;5013961;28;6796;-75
2022/08/07 04:16:34;;;;;;;;;;;;;;;14.51;55.07;101446.47;5012703;28;6978;-75
2022/08/07 04:19:01;;;;;;;;;;;;;;;14.51;55.32;101451.63;5012299;28;6845;-75
2022/08/07 04:21:27;;;;;;;;;;;;;;;14.52;55.32;101449.91;5012026;28;7026;-74
2022/08/07 04:23:53;;;;;;;;;;;;;;;14.52;54.83;101455.97;5010507;28;6844;-74
2022/08/07 04:26:18;;;;;;;;;;;;;;;14.51;55.32;101451.63;5012387;28;6918;-74
2022/08/07 04:28:44;;;;;;;;;;;;;;;14.52;55.47;101460.22;5011555;28;6947;-74
2022/08/07 04:31:10;;;;;;;;;;;;;;;14.55;56.34;101466.41;5009577;28;6936;-74
2022/08/07 04:33:38;;;;;;;;;;;;;;;14.64;55.92;101467.69;5009543;28;6974;-74
2022/08/07 04:36:07;;;;;;;;;;;;;;;14.76;55.98;101463.13;4978413;28;7050;-74
2022/08/07 04:38:35;;;;;;;;;;;;;;;14.93;56.85;101466.53;4982712;28;6972;-74
2022/08/07 04:41:00;;;;;;;;;;;;;;;15.12;57.26;101460.53;5008764;28;6800;-74
2022/08/07 04:43:35;;;;;;;;;;;;;;;15.34;56.52;101463.22;5011112;28;7187;-74
2022/08/07 04:46:18;;;;;;;;;;;;;;;15.56;57.18;101459.91;4983203;28;7310;-75
2022/08/07 04:49:15;;;;;;;;;;;;;;;15.83;57.14;101465.38;4984253;28;6819;-74
2022/08/07 04:51:59;;;;;;;;;;;;;;;16.16;57.15;101461.63;4997732;28;8098;-74
2022/08/07 04:54:49;;;;;;;;;;;;;;;16.45;56.63;101456.78;4977015;28;6804;-74
2022/08/07 04:57:40;;;;;;;;;;;;;;;16.79;55.84;101463.28;4979167;28;7003;-74
2022/08/07 05:00:13;;;;;;;;;;;;;;;17.06;55.42;101469.53;5002057;28;7431;-74
2022/08/07 05:03:06;;;;;;;;;;;;;;;17.39;55.42;101468.16;4993556;28;11352;-74
2022/08/07 05:05:47;;;;;;;;;;;;;;;17.70;55.12;101475.31;4960858;28;7530;-74
2022/08/07 05:08:36;;;;;;;;;;;;;;;18.04;55.44;101470.47;4979412;28;6860;-74
2022/08/07 05:11:29;;;;;;;;;;;;;;;18.44;54.82;101468.34;4968093;28;7840;-74
2022/08/07 05:14:38;;;;;;;;;;;;;;;18.82;54.46;101465.19;4980342;28;6800;-74
2022/08/07 05:17:10;;;;;;;;;;;;;;;19.23;53.72;101475.09;4977372;28;6868;-74
2022/08/07 05:19:50;;;;;;;;;;;;;;;19.58;53.23;101464.84;4981841;28;6954;-74
2022/08/07 05:22:20;;;;;;;;;;;;;;;19.92;52.67;101470.06;4977296;28;6815;-75
2022/08/07 05:24:50;;;;;;;;;;;;;;;20.22;52.29;101466.53;4964876;28;7070;-74
2022/08/07 05:27:20;;;;;;;;;;;;;;;20.50;51.87;101475.03;4978200;28;7062;-74
2022/08/07 05:29:49;;;;;;;;;;;;;;;20.74;50.89;101479.03;4982019;28;7289;-74
2022/08/07 05:32:19;;;;;;;;;;;;;;;20.95;50.22;101478.69;4979685;28;6803;-74
2022/08/07 05:34:48;;;;;;;;;;;;;;;21.13;49.39;101477.31;4980523;28;7199;-75
2022/08/07 05:37:15;;;;;;;;;;;;;;;21.25;48.72;101479.31;5001456;28;7180;-75
2022/08/07 05:39:41;;;;;;;;;;;;;;;21.32;47.90;101470.75;4976452;28;7214;-75
2022/08/07 05:42:08;;;;;;;;;;;;;;;21.40;47.81;101473.53;4996826;28;7220;-74
2022/08/07 05:44:36;;;;;;;;;;;;;;;21.50;47.61;101481.56;5000219;28;6827;-75
2022/08/07 05:47:03;;;;;;;;;;;;;;;21.60;47.03;101481.75;4982984;28;7345;-75
2022/08/07 05:49:30;;;;;;;;;;;;;;;21.70;46.50;101482.84;4983103;28;7324;-74
2022/08/07 05:51:56;;;;;;;;;;;;;;;21.74;46.13;101482.94;4970568;28;6811;-74
2022/08/07 05:54:21;;;;;;;;;;;;;;;21.72;45.30;101487.22;5002470;28;6910;-74
2022/08/07 05:56:48;;;;;;;;;;;;;;;21.66;45.12;101492.31;4967707;28;7168;-74
2022/08/07 05:59:20;;;;;;;;;;;;;;;21.53;44.45;101492.91;5002637;28;7019;-75
2022/08/07 06:01:48;;;;;;;;;;;;;;;21.33;44.38;101498.59;4998967;28;7080;-75
2022/08/07 06:04:18;;;;;;;;;;;;;;;21.10;44.72;101498.97;4985003;28;6879;-75
2022/08/07 06:06:44;;;;;;;;;;;;;;;20.90;44.71;101496.81;4983374;28;6912;-75
2022/08/07 06:09:10;;;;;;;;;;;;;;;20.72;44.66;101497.25;4998527;28;6991;-75
2022/08/07 06:11:37;;;;;;;;;;;;;;;20.56;45.07;101493.38;5018773;28;7431;-75
2022/08/07 06:14:04;;;;;;;;;;;;;;;20.41;44.65;101496.47;5001986;28;6792;-75
2022/08/07 06:16:37;;;;;;;;;;;;;;;20.26;44.79;101497.88;4981427;28;6784;-75
2022/08/07 06:19:03;;;;;;;;;;;;;;;20.16;45.24;101501.09;4983148;28;6876;-75
2022/08/07 06:21:30;;;;;;;;;;;;;;;20.04;45.97;101496.44;4984016;28;6990;-75
2022/08/07 06:23:57;;;;;;;;;;;;;;;19.96;45.92;101505.75;4965448;28;6780;-75
2022/08/07 06:26:24;;;;;;;;;;;;;;;19.89;46.35;101504.69;4997426;28;6800;-75
2022/08/07 06:28:56;;;;;;;;;;;;;;;19.85;46.35;101503.72;4984210;28;6996;-75
2022/08/07 06:31:22;;;;;;;;;;;;;;;19.82;46.43;101498.44;4969601;28;6971;-75
2022/08/07 06:33:48;;;;;;;;;;;;;;;19.82;46.28;101500.16;5010749;28;6848;-75
2022/08/07 06:36:14;;;;;;;;;;;;;;;19.81;46.51;101490.59;5016316;28;7078;-75
2022/08/07 06:38:42;;;;;;;;;;;;;;;19.84;47.27;101494.16;5000375;28;7003;-75
2022/08/07 06:41:19;;;;;;;;;;;;;;;19.90;47.26;101489.97;4977879;28;7186;-75
2022/08/07 06:43:47;;;;;;;;;;;;;;;19.97;47.00;101494.50;5030619;28;7157;-75
2022/08/07 06:46:15;;;;;;;;;;;;;;;20.02;47.15;101482.50;5017593;28;8051;-75
2022/08/07 06:48:42;;;;;;;;;;;;;;;20.07;46.82;101485.22;4980657;28;6995;-75
2022/08/07 06:51:15;;;;;;;;;;;;;;;20.11;47.13;101487.97;4978540;28;7796;-75
2022/08/07 06:53:43;;;;;;;;;;;;;;;20.17;46.44;101482.03;4985648;28;6986;-75
2022/08/07 06:56:12;;;;;;;;;;;;;;;20.20;46.96;101484.69;4999761;28;6992;-75
2022/08/07 06:58:40;;;;;;;;;;;;;;;20.23;46.54;101489.09;5011618;28;7023;-75
2022/08/07 07:01:09;;;;;;;;;;;;;;;20.29;46.44;101483.16;4976210;28;7177;-75
2022/08/07 07:03:40;;;;;;;;;;;;;;;20.32;46.64;101489.34;4995225;28;6978;-75
2022/08/07 07:06:09;;;;;;;;;;;;;;;20.37;46.68;101487.72;4995393;28;6812;-75
2022/08/07 07:08:35;;;;;;;;;;;;;;;20.43;46.36;101479.19;4991598;28;7311;-75
2022/08/07 07:11:03;;;;;;;;;;;;;;;20.50;46.86;101482.81;4971957;28;7018;-75
2022/08/07 07:13:39;;;;;;;;;;;;;;;20.59;46.11;101482.16;4990500;28;6795;-75
2022/08/07 07:16:19;;;;;;;;;;;;;;;20.67;45.98;101488.44;4992773;28;7259;-75
2022/08/07 07:18:54;;;;;;;;;;;;;;;20.76;46.62;101487.75;4992407;28;7284;-75
2022/08/07 07:21:28;;;;;;;;;;;;;;;20.88;46.61;101489.81;4981422;28;6868;-75
2022/08/07 07:23:55;;;;;;;;;;;;;;;20.97;46.75;101490.00;4965930;28;6816;-75
2022/08/07 07:26:22;;;;;;;;;;;;;;;21.09;46.32;101482.44;4991527;28;6799;-75
2022/08/07 07:29:07;;;;;;;;;;;;;;;21.23;46.04;101484.50;4994831;28;6800;-75
2022/08/07 07:31:39;;;;;;;;;;;;;;;21.36;45.95;101477.81;5001058;28;8079;-76
2022/08/07 07:34:11;;;;;;;;;;;;;;;21.49;45.17;101482.41;5009314;28;6815;-75
2022/08/07 07:36:40;;;;;;;;;;;;;;;21.63;45.50;101479.19;5025176;28;8077;-75
2022/08/07 07:39:09;;;;;;;;;;;;;;;21.77;45.63;101482.97;5012164;28;6999;-75
2022/08/07 07:41:37;;;;;;;;;;;;;;;21.92;44.85;101482.38;4983036;28;7252;-75
2022/08/07 07:44:05;;;;;;;;;;;;;;;22.06;44.92;101474.81;4980160;28;6804;-75
2022/08/07 07:46:36;;;;;;;;;;;;;;;22.19;44.45;101469.78;5015883;28;8488;-75
2022/08/07 07:49:05;;;;;;;;;;;;;;;22.33;43.78;101470.91;5010251;28;7019;-75
2022/08/07 07:51:31;;;;;;;;;;;;;;;;;;5008856;28;6796;-75
2022/08/07 07:53:59;;;;;;;;;;;;;;;22.60;43.20;101466.13;4979508;28;7275;-75
2022/08/07 07:56:30;;;;;;;;;;;;;;;22.73;42.34;101461.97;5009840;28;6868;-75
2022/08/07 07:59:00;;;;;;;;;;;;;;;22.86;42.30;101469.09;4981593;28;7300;-75
2022/08/07 08:01:31;;;;;;;;;;;;;;;22.97;41.65;101456.19;5013383;28;6907;-75
2022/08/07 08:04:03;;;;;;;;;;;;;;;23.08;41.87;101458.97;4983180;28;7002;-75
2022/08/07 08:06:32;;;;;;;;;;;;;;;23.21;41.24;101456.50;4985547;28;6792;-75
2022/08/07 08:09:03;;;;;;;;;;;;;;;23.30;41.23;101460.09;4977001;28;7217;-75
2022/08/07 08:11:29;;;;;;;;;;;;;;;23.39;40.99;101461.97;5017581;28;7331;-76
2022/08/07 08:13:55;;;;;;;;;;;;;;;23.49;40.65;101460.31;4993263;28;7065;-76
2022/08/07 08:16:31;;;;;;;;;;;;;;;23.59;40.40;101463.94;4984108;28;7220;-75
2022/08/07 08:19:00;;;;;;;;;;;;;;;23.69;39.93;101457.03;5011819;28;7003;-76
2022/08/07 08:27:05;;;;;;;;;;;;;;;24.06;38.10;101446.09;5010365;28;6804;-76
2022/08/07 08:30:00;;;;;;;;;;;;;;;24.16;37.96;101440.06;5014011;28;7232;-76
2022/08/07 08:32:30;;;;;;;;;;;;;;;24.27;37.54;101442.75;5021957;28;7027;-76
2022/08/07 08:34:58;;;;;;;;;;;;;;;24.36;37.28;101442.81;4985213;28;6804;-76
2022/08/07 08:37:29;;;;;;;;;;;;;;;24.50;37.46;101444.69;4966023;28;7125;-76
2022/08/07 08:39:56;;;;;;;;;;;;;;;24.63;37.48;101446.50;5000275;28;7148;-76
2022/08/07 08:42:57;;;;;;;;;;;;;;;24.81;37.22;101440.50;4995555;28;6970;-76
2022/08/07 08:45:52;;;;;;;;;;;;;;;25.03;37.21;101438.00;4971279;28;7050;-75
2022/08/07 08:48:47;;;;;;;;;;;;;;;25.29;37.68;101438.97;4992409;28;7356;-76
2022/08/07 08:51:34;;;;;;;;;;;;;;;25.69;37.28;101427.69;4976997;28;8804;-76
2022/08/07 08:54:22;;;;;;;;;;;;;;;26.15;36.37;101421.59;5010301;28;7204;-75
2022/08/07 08:56:51;;;;;;;;;;;;;;;26.57;35.02;101426.84;4984593;28;9134;-76
2022/08/07 08:59:34;;;;;;;;;;;;;;;26.98;33.38;101425.84;4992220;28;6877;-76
2022/08/07 09:02:36;;;;;;;;;;;;;;;27.57;31.98;101422.91;5006547;28;6820;-76
2022/08/07 09:05:21;;;;;;;;;;;;;;;28.27;30.93;101419.75;5020175;28;7424;-76
2022/08/07 09:08:26;;;;;;;;;;;;;;;29.09;29.39;101412.66;4979649;28;6981;-76
2022/08/07 09:11:08;;;;;;;;;;;;;;;29.93;29.17;101403.50;4979605;28;6859;-77
2022/08/07 09:14:11;;;;;;;;;;;;;;;30.73;27.11;101399.44;5008628;28;7191;-77
2022/08/07 09:17:12;;;;;;;;;;;;;;;31.56;27.73;101402.00;5012873;28;7200;-77
2022/08/07 09:19:59;;;;;;;;;;;;;;;32.17;26.00;101397.84;5024857;28;7874;-77
2022/08/07 09:22:42;;;;;;;;;;;;;;;32.48;24.63;101397.00;5005351;28;7184;-76
2022/08/07 09:25:32;;;;;;;;;;;;;;;32.78;24.01;101402.34;4997806;28;7108;-76
2022/08/07 09:28:09;;;;;;;;;;;;;;;33.21;23.71;101396.66;5007149;28;7203;-76
2022/08/07 09:30:57;;;;;;;;;;;;;;;33.83;22.61;101386.69;4975604;28;6880;-77
2022/08/07 09:33:42;;;;;;;;;;;;;;;34.37;22.24;101380.41;4980935;28;7745;-76
2022/08/07 09:36:26;;;;;;;;;;;;;;;34.61;21.30;101389.28;5010606;28;6823;-77
2022/08/07 09:39:25;;;;;;;;;;;;;;;34.85;21.25;101381.25;5022017;28;9009;-78
2022/08/07 09:41:53;;;;;;;;;;;;;;;34.95;20.19;101377.31;4977929;28;8270;-78
2022/08/07 09:45:07;;;;;;;;;;;;;;;34.95;20.28;101374.66;5009722;28;8271;-77
2022/08/07 09:48:03;;;;;;;;;;;;;;;34.73;20.04;101375.50;4962638;28;8287;-78
2022/08/07 09:50:44;;;;;;;;;;;;;;;34.61;20.21;101379.50;4979977;28;8568;-78
2022/08/07 09:53:14;;;;;;;;;;;;;;;34.62;20.75;101369.72;5009862;28;8380;-78
2022/08/07 09:55:57;;;;;;;;;;;;;;;34.66;20.47;101367.81;4975736;28;7213;-78
2022/08/07 09:59:16;;;;;;;;;;;;;;;34.70;19.91;101367.66;5012609;28;8299;-78
2022/08/07 10:02:11;;;;;;;;;;;;;;;34.89;19.94;101359.78;4965161;28;8163;-78
2022/08/07 10:05:16;;;;;;;;;;;;;;;35.41;20.56;101363.09;4959560;28;7190;-78
2022/08/07 10:08:03;;;;;;;;;;;;;;;35.84;19.41;101350.63;5011364;28;6855;-77
2022/08/07 10:11:01;;;;;;;;;;;;;;;36.12;19.09;101357.44;4980379;28;6868;-78
2022/08/07 10:13:49;;;;;;;;;;;;;;;36.14;19.26;101352.88;4979352;28;7026;-78
2022/08/07 10:16:48;;;;;;;;;;;;;;;36.17;18.53;101362.56;4975263;28;6875;-78
2022/08/07 10:19:47;;;;;;;;;;;;;;;36.17;18.32;101351.00;5022850;28;8197;-78
2022/08/07 10:22:59;;;;;;;;;;;;;;;36.38;18.74;101349.16;5010280;28;8351;-78
2022/08/07 10:25:44;;;;;;;;;;;;;;;36.91;19.13;101346.69;5012386;28;7219;-78
2022/08/07 10:28:37;;;;;;;;;;;;;;;37.10;18.17;101333.34;5011127;28;7221;-78
2022/08/07 10:32:08;;;;;;;;;;;;;;;36.93;17.87;101340.34;5007488;28;6944;-77
2022/08/07 10:34:53;;;;;;;;;;;;;;;36.89;17.25;101344.09;4966009;28;7017;-79
2022/08/07 10:38:19;;;;;;;;;;;;;;;36.67;17.82;101336.28;4977555;28;7020;-77
2022/08/07 10:40:57;;;;;;;;;;;;;;;36.50;17.54;101337.03;4984626;28;7069;-77
2022/08/07 10:43:34;;;;;;;;;;;;;;;36.42;17.84;101343.63;4962274;28;7135;-78
2022/08/07 10:46:12;;;;;;;;;;;;;;;36.42;17.19;101338.28;4995087;28;6994;-77
2022/08/07 10:49:32;;;;;;;;;;;;;;;36.49;17.65;101332.63;5013120;28;7919;-78
2022/08/07 10:52:17;;;;;;;;;;;;;;;36.78;17.22;101330.41;4964938;28;6816;-78
2022/08/07 10:55:25;;;;;;;;;;;;;;;37.05;17.43;101322.91;4996018;28;9430;-77
2022/08/07 10:58:31;;;;;;;;;;;;;;;37.56;17.33;101314.13;4984082;28;7267;-77
2022/08/07 11:01:26;;;;;;;;;;;;;;;38.11;17.20;101311.28;5012571;28;7277;-76
2022/08/07 11:04:04;;;;;;;;;;;;;;;38.48;16.15;101306.56;5012570;28;7228;-76
2022/08/07 11:07:17;;;;;;;;;;;;;;;38.32;15.75;101310.09;4985933;28;7124;-77
2022/08/07 11:09:53;;;;;;;;;;;;;;;37.81;16.25;101304.78;4979185;28;7285;-77
2022/08/07 11:12:33;;;;;;;;;;;;;;;37.73;16.18;101291.00;5012752;28;7303;-77
2022/08/07 11:15:08;;;;;;;;;;;;;;;38.01;16.39;101293.06;5009261;28;6886;-77
2022/08/07 11:17:56;;;;;;;;;;;;;;;38.44;15.67;101291.63;5009648;28;6967;-76
2022/08/07 11:20:40;;;;;;;;;;;;;;;38.59;15.52;101285.44;4986365;28;6803;-78
2022/08/07 11:23:30;;;;;;;;;;;;;;;38.31;15.05;101278.94;5016846;28;7285;-77
2022/08/07 11:26:17;;;;;;;;;;;;;;;37.76;15.88;101285.47;4982059;28;6951;-76
2022/08/07 11:29:08;;;;;;;;;;;;;;;37.61;15.85;101279.13;4977750;28;7274;-76
2022/08/07 11:32:04;;;;;;;;;;;;;;;37.93;16.00;101281.88;5025222;28;8190;-77
2022/08/07 11:34:47;;;;;;;;;;;;;;;38.05;15.65;101281.28;4991415;28;7217;-76
2022/08/07 11:37:40;;;;;;;;;;;;;;;38.00;15.43;101277.94;4980780;28;7006;-76
2022/08/07 11:41:00;;;;;;;;;;;;;;;38.14;15.33;101274.53;4980077;28;7006;-76
2022/08/07 11:44:15;;;;;;;;;;;;;;;38.25;14.99;101273.94;5026387;28;6808;-77
2022/08/07 11:47:07;;;;;;;;;;;;;;;37.93;15.74;101281.88;4977799;28;6854;-76
2022/08/07 11:50:04;;;;;;;;;;;;;;;37.73;15.77;101270.47;4978037;28;6815;-77
2022/08/07 11:53:14;;;;;;;;;;;;;;;37.58;15.46;101271.28;5014539;28;7182;-77
2022/08/07 11:56:10;;;;;;;;;;;;;;;37.67;15.91;101262.78;4980664;28;6872;-77
2022/08/07 11:58:53;;;;;;;;;;;;;;;38.02;16.00;101269.88;4977579;28;7238;-76
2022/08/07 12:01:59;;;;;;;;;;;;;;;38.19;15.23;101269.78;4979297;28;6875;-76
2022/08/07 12:05:17;;;;;;;;;;;;;;;38.39;16.01;101258.91;5011704;28;7203;-77
2022/08/07 12:08:05;;;;;;;;;;;;;;;38.86;15.67;101257.13;4978996;28;7240;-76
2022/08/07 12:10:43;;;;;;;;;;;;;;;38.98;15.13;101259.16;4978350;28;7329;-77
2022/08/07 12:13:44;;;;;;;;;;;;;;;38.77;14.76;101263.91;4997676;28;7148;-78
2022/08/07 12:16:20;;;;;;;;;;;;;;;38.23;15.36;101262.44;4982154;28;6812;-78
2022/08/07 12:18:54;;;;;;;;;;;;;;;37.62;15.16;101260.34;4992522;28;7099;-76
2022/08/07 12:21:57;;;;;;;;;;;;;;;37.21;15.74;101256.19;5017682;28;7251;-76
2022/08/07 12:27:59;;;;;;;;;;;;;;;37.84;15.92;101242.25;4980395;28;6788;-76
2022/08/07 12:30:36;;;;;;;;;;;;;;;38.27;15.57;101241.72;5001039;28;7143;-76
2022/08/07 12:33:11;;;;;;;;;;;;;;;38.56;15.56;101239.25;5003418;28;7198;-76
2022/08/07 12:35:41;;;;;;;;;;;;;;;38.58;15.08;101242.69;5013632;28;6997;-76
2022/08/07 12:38:07;;;;;;;;;;;;;;;38.53;14.97;101234.91;5010915;28;7051;-77
2022/08/07 12:40:36;;;;;;;;;;;;;;;38.55;14.94;101241.06;5006377;28;8057;-76
2022/08/07 12:43:06;;;;;;;;;;;;;;;38.49;15.13;101236.06;4994290;28;7184;-76
2022/08/07 12:46:01;;;;;;;;;;;;;;;38.47;14.90;101232.56;5012286;28;6858;-76
2022/08/07 12:49:22;;;;;;;;;;;;;;;38.33;14.83;101231.53;5008735;28;6799;-76
2022/08/07 12:52:07;;;;;;;;;;;;;;;38.14;15.12;101228.19;4976196;28;6812;-77
2022/08/07 12:55:06;;;;;;;;;;;;;;;38.05;14.97;101227.75;5009876;28;6819;-77
2022/08/07 12:57:38;;;;;;;;;;;;;;;38.14;14.81;101234.41;4980663;28;6803;-76
2022/08/07 13:00:08;;;;;;;;;;;;;;;38.16;14.66;101227.16;5027341;28;7014;-76
2022/08/07 13:03:22;;;;;;;;;;;;;;;38.23;15.13;101219.63;4975346;28;6796;-76
2022/08/07 13:06:20;;;;;;;;;;;;;;;38.48;15.69;101215.56;4999762;28;7192;-76
2022/08/07 13:09:33;;;;;;;;;;;;;;;38.67;15.17;101212.69;4981943;28;7911;-76
2022/08/07 13:12:39;;;;;;;;;;;;;;;38.45;14.85;101216.59;4983378;28;7237;-77
2022/08/07 13:15:46;;;;;;;;;;;;;;;38.30;14.96;101218.34;5012994;28;7087;-76
2022/08/07 13:18:47;;;;;;;;;;;;;;;38.23;14.77;101208.91;4968003;28;7122;-76
2022/08/07 13:21:48;;;;;;;;;;;;;;;38.01;15.20;101209.25;4978322;28;7006;-77
2022/08/07 13:24:52;;;;;;;;;;;;;;;37.70;14.67;101210.94;4963267;28;7209;-78
2022/08/07 13:27:36;;;;;;;;;;;;;;;37.29;14.56;101204.16;5008103;28;6872;-76
2022/08/07 13:30:11;;;;;;;;;;;;;;;36.98;15.05;101203.91;4969734;28;7566;-76
2022/08/07 13:32:58;;;;;;;;;;;;;;;36.95;15.25;101198.75;4980878;28;7022;-76
2022/08/07 13:35:41;;;;;;;;;;;;;;;36.79;15.13;101201.31;4981088;28;7369;-76
2022/08/07 13:38:26;;;;;;;;;;;;;;;36.55;15.92;101201.56;5010491;28;6812;-77
2022/08/07 13:41:08;;;;;;;;;;;;;;;36.41;15.99;101200.47;5011922;28;7173;-76
2022/08/07 13:43:42;;;;;;;;;;;;;;;36.34;15.78;101188.34;5013608;28;7253;-76
2022/08/07 13:46:13;;;;;;;;;;;;;;;36.32;15.40;101192.91;4982881;28;7316;-76
2022/08/07 13:48:45;;;;;;;;;;;;;;;36.25;16.03;101186.97;4960280;28;6998;-76